Time;durP1;ratioP1;P1;durP2;ratioP2;P2;SDS_P1;SDS_P2;PMS_P1;PMS_P2;Temp;Humidity;BMP_temperature;BMP_pressure;BME280_temperature;BME280_humidity;BME280_pressure;Samples;Min_cycle;Max_cycle;Signal;HPM_P1;HPM_P2
2021/11/11 16:20:16;;;;;;;0.20;0.20;;;;;;;;;;5054676;28;20254;-66
2021/11/11 16:23:05;;;;;;;0.10;0.10;;;;;;;;;;5053867;28;20207;-67
2021/11/11 16:26:01;;;;;;;0.20;0.20;;;;;;;;;;5051547;28;20358;-68
2021/11/11 16:28:27;;;;;;;0.10;0.10;;;;;;;;;;5058679;28;20200;-67
2021/11/11 16:30:53;;;;;;;0.10;0.10;;;;;;;;;;5052701;28;20278;-67
2021/11/11 16:33:21;;;;;;;0.10;0.10;;;;;;;;;;5058497;28;20225;-69
2021/11/11 16:35:47;;;;;;;0.10;0.10;;;;;;;;;;5052663;28;20239;-69
2021/11/11 16:38:15;;;;;;;0.10;0.10;;;;;;;;;;5052312;28;20201;-69
2021/11/11 16:40:42;;;;;;;0.10;0.10;;;;;;;;;;5052593;28;20547;-69
2021/11/11 16:43:09;;;;;;;0.10;0.10;;;;;;;;;;5051370;28;20209;-69
2021/11/11 16:45:36;;;;;;;0.10;0.10;;;;;;;;;;5055907;28;20229;-69
2021/11/11 16:48:02;;;;;;;0.10;0.10;;;;;;;;;;5055029;28;20280;-70
2021/11/11 16:50:29;;;;;;;0.20;0.20;;;;;;;;;;5053611;28;20209;-70
2021/11/11 16:52:56;;;;;;;0.10;0.10;;;;;;;;;;5053194;28;20207;-69
2021/11/11 16:55:24;;;;;;;0.10;0.10;;;;;;;;;;5056771;28;20200;-68
2021/11/11 16:57:50;;;;;;;0.10;0.10;;;;;;;;;;5056866;28;20207;-69
2021/11/11 17:00:17;;;;;;;0.10;0.10;;;;;;;;;;5051245;28;20255;-68
2021/11/11 17:02:45;;;;;;;0.13;0.13;;;;;;;;;;5052235;28;20245;-68
2021/11/11 17:05:13;;;;;;;0.10;0.10;;;;;;;;;;5052622;28;20312;-68
2021/11/11 17:07:42;;;;;;;0.10;0.10;;;;;;;;;;5057785;28;20274;-69
2021/11/11 17:10:08;;;;;;;0.10;0.10;;;;;;;;;;5057897;28;20436;-69
2021/11/11 17:12:35;;;;;;;0.10;0.10;;;;;;;;;;5053757;28;20236;-69
2021/11/11 17:15:06;;;;;;;0.10;0.10;;;;;;;;;;5053737;28;20207;-69
2021/11/11 17:17:33;;;;;;;0.10;0.10;;;;;;;;;;5049487;28;20293;-69
2021/11/11 17:19:59;;;;;;;0.10;0.10;;;;;;;;;;5054644;28;20201;-70
2021/11/11 17:22:33;;;;;;;0.10;0.10;;;;;;;;;;5045844;28;20233;-70
2021/11/11 17:25:23;;;;;;;0.10;0.10;;;;;;;;;;5049847;28;20202;-69
2021/11/11 17:27:57;;;;;;;0.10;0.10;;;;;;;;;;5043761;28;20410;-69
2021/11/11 17:30:23;;;;;;;0.10;0.10;;;;;;;;;;5041862;28;20203;-70
2021/11/11 17:32:49;;;;;;;0.10;0.10;;;;;;;;;;5038007;28;20227;-69
2021/11/11 17:35:16;;;;;;;0.10;0.10;;;;;;;;;;5036265;28;20251;-70
2021/11/11 17:37:42;;;;;;;0.10;0.10;;;;;;;;;;5041114;28;20211;-66
2021/11/11 17:40:11;;;;;;;0.10;0.10;;;;;;;;;;5035546;28;20253;-66
2021/11/11 17:42:37;;;;;;;0.10;0.10;;;;;;;;;;5038502;28;20452;-69
2021/11/11 17:45:05;;;;;;;0.10;0.10;;;;;;;;;;5041988;28;20629;-69
2021/11/11 17:47:35;;;;;;;0.10;0.10;;;;;;;;;;5039664;28;20209;-70
2021/11/11 17:50:05;;;;;;;0.10;0.10;;;;;;;;;;5037911;28;20208;-69
2021/11/11 17:52:34;;;;;;;0.10;0.10;;;;;;;;;;5038304;28;20239;-69
2021/11/11 17:55:02;;;;;;;0.10;0.10;;;;;;;;;;5037244;28;20228;-68
2021/11/11 17:57:32;;;;;;;0.17;0.17;;;;;;;;;;5042018;28;20275;-69
2021/11/11 17:59:59;;;;;;;0.20;0.20;;;;;;;;;;5038821;28;20301;-69
2021/11/11 18:02:37;;;;;;;0.10;0.10;;;;;;;;;;5037210;28;20275;-69
2021/11/11 18:05:04;;;;;;;0.20;0.20;;;;;;;;;;5039886;28;20198;-69
2021/11/11 18:07:32;;;;;;;0.10;0.10;;;;;;;;;;5040529;28;20201;-68
2021/11/11 18:10:01;;;;;;;0.10;0.10;;;;;;;;;;5043201;28;20389;-71
2021/11/11 18:12:32;;;;;;;0.10;0.10;;;;;;;;;;5039930;28;20202;-69
2021/11/11 18:15:03;;;;;;;0.10;0.10;;;;;;;;;;5036386;28;20273;-69
2021/11/11 18:17:30;;;;;;;0.10;0.10;;;;;;;;;;5030651;28;20567;-70
2021/11/11 18:19:57;;;;;;;0.10;0.10;;;;;;;;;;5039075;28;20203;-70
2021/11/11 18:22:23;;;;;;;0.10;0.10;;;;;;;;;;5037183;28;20203;-69
2021/11/11 18:24:50;;;;;;;0.10;0.10;;;;;;;;;;5042729;28;20250;-70
2021/11/11 18:27:16;;;;;;;0.10;0.10;;;;;;;;;;5039362;28;20214;-71
2021/11/11 18:29:49;;;;;;;0.10;0.10;;;;;;;;;;5039446;28;20214;-70
2021/11/11 18:32:17;;;;;;;0.10;0.10;;;;;;;;;;5036308;28;20271;-70
2021/11/11 18:34:49;;;;;;;0.10;0.10;;;;;;;;;;5041571;28;20225;-70
2021/11/11 18:37:22;;;;;;;0.10;0.10;;;;;;;;;;5033825;28;20216;-68
2021/11/11 18:39:49;;;;;;;0.10;0.10;;;;;;;;;;5040500;28;20197;-70
2021/11/11 18:42:15;;;;;;;0.10;0.10;;;;;;;;;;5036597;28;20206;-70
2021/11/11 18:44:44;;;;;;;0.10;0.10;;;;;;;;;;5038571;28;20252;-70
2021/11/11 18:47:17;;;;;;;0.10;0.10;;;;;;;;;;5041048;28;20205;-69
2021/11/11 18:49:46;;;;;;;0.10;0.10;;;;;;;;;;5030142;28;20198;-70
2021/11/11 18:52:12;;;;;;;0.10;0.10;;;;;;;;;;5033039;28;20209;-71
2021/11/11 18:54:38;;;;;;;0.10;0.10;;;;;;;;;;5024434;28;20214;-71
2021/11/11 18:57:05;;;;;;;0.10;0.10;;;;;;;;;;5028792;28;20537;-70
2021/11/11 18:59:32;;;;;;;0.10;0.10;;;;;;;;;;5025726;28;20204;-71
2021/11/11 19:01:58;;;;;;;0.10;0.10;;;;;;;;;;5031101;28;20224;-70
2021/11/11 19:04:26;;;;;;;0.10;0.10;;;;;;;;;;5026693;28;20212;-69
2021/11/11 19:06:56;;;;;;;0.10;0.10;;;;;;;;;;5036530;28;20393;-70
2021/11/11 19:09:25;;;;;;;0.10;0.10;;;;;;;;;;5037244;28;20232;-70
2021/11/11 19:11:54;;;;;;;0.10;0.10;;;;;;;;;;5031874;28;20497;-70
2021/11/11 19:14:24;;;;;;;0.10;0.10;;;;;;;;;;5034924;28;20210;-70
2021/11/11 19:16:52;;;;;;;0.10;0.10;;;;;;;;;;5042000;28;20410;-69
2021/11/11 19:19:19;;;;;;;0.10;0.10;;;;;;;;;;5040370;28;20256;-70
2021/11/11 19:21:46;;;;;;;0.10;0.10;;;;;;;;;;5034642;28;20212;-70
2021/11/11 19:24:15;;;;;;;0.10;0.10;;;;;;;;;;5037387;28;20506;-69
2021/11/11 19:26:42;;;;;;;0.10;0.10;;;;;;;;;;5033498;28;20205;-70
2021/11/11 19:29:09;;;;;;;0.10;0.10;;;;;;;;;;5037168;28;20392;-69
2021/11/11 19:31:37;;;;;;;0.10;0.10;;;;;;;;;;5041806;28;20319;-71
2021/11/11 19:34:07;;;;;;;0.10;0.10;;;;;;;;;;5026902;28;20228;-70
2021/11/11 19:36:40;;;;;;;0.10;0.10;;;;;;;;;;5035063;28;20291;-71
2021/11/11 19:39:29;;;;;;;0.10;0.10;;;;;;;;;;5038607;28;20460;-70
2021/11/11 19:42:04;;;;;;;0.10;0.10;;;;;;;;;;5037704;28;20211;-69
2021/11/11 19:47:47;;;;;;;0.10;0.10;;;;;;;;;;5035325;28;20218;-70
2021/11/11 19:50:32;;;;;;;0.10;0.10;;;;;;;;;;5032866;28;20286;-72
2021/11/11 19:56:14;;;;;;;0.10;0.10;;;;;;;;;;5034657;28;20201;-71
2021/11/11 19:58:56;;;;;;;0.10;0.10;;;;;;;;;;5033377;28;20217;-70
2021/11/11 20:01:37;;;;;;;0.10;0.10;;;;;;;;;;5034168;28;20197;-71
2021/11/11 20:07:01;;;;;;;0.10;0.10;;;;;;;;;;5033463;28;20213;-71
2021/11/11 20:09:41;;;;;;;0.10;0.10;;;;;;;;;;5037217;28;20304;-72
2021/11/11 20:12:14;;;;;;;0.10;0.10;;;;;;;;;;5033317;28;20251;-71
2021/11/11 20:14:58;;;;;;;0.10;0.10;;;;;;;;;;5028563;28;20209;-71
2021/11/11 20:17:40;;;;;;;0.10;0.10;;;;;;;;;;5026837;28;20231;-72
2021/11/11 20:31:49;;;;;;;0.10;0.10;;;;;;;;;;5032889;28;20195;-71
2021/11/11 20:34:30;;;;;;;0.10;0.10;;;;;;;;;;5027399;28;20274;-70
2021/11/11 20:39:55;;;;;;;0.10;0.10;;;;;;;;;;5028456;28;20205;-70
2021/11/11 20:42:51;;;;;;;0.10;0.10;;;;;;;;;;5022932;28;20408;-71
2021/11/11 20:45:26;;;;;;;0.10;0.10;;;;;;;;;;5030172;28;20210;-70
2021/11/11 20:48:02;;;;;;;0.10;0.10;;;;;;;;;;5028299;28;20462;-69
2021/11/11 20:50:47;;;;;;;0.10;0.10;;;;;;;;;;5035233;28;20214;-70
2021/11/11 20:59:01;;;;;;;0.10;0.10;;;;;;;;;;5000150;28;20225;-69
2021/11/11 21:01:31;;;;;;;0.10;0.10;;;;;;;;;;5034666;28;20208;-70
2021/11/11 21:04:01;;;;;;;0.10;0.10;;;;;;;;;;5034081;28;20448;-71
2021/11/11 21:06:30;;;;;;;0.10;0.10;;;;;;;;;;5032419;28;20201;-70
2021/11/11 21:09:08;;;;;;;0.10;0.10;;;;;;;;;;5041536;28;20229;-71
2021/11/11 21:11:44;;;;;;;0.10;0.10;;;;;;;;;;5043451;28;20211;-70
2021/11/11 21:14:17;;;;;;;0.10;0.10;;;;;;;;;;5038911;28;20203;-70
2021/11/11 21:19:28;;;;;;;0.10;0.10;;;;;;;;;;5036238;28;20204;-71
2021/11/11 21:22:00;;;;;;;0.10;0.10;;;;;;;;;;5037507;28;20249;-71
2021/11/11 21:24:26;;;;;;;0.10;0.10;;;;;;;;;;5039994;28;20209;-70
2021/11/11 21:26:52;;;;;;;0.10;0.10;;;;;;;;;;5037182;28;20208;-71
2021/11/11 21:29:19;;;;;;;0.10;0.10;;;;;;;;;;5038621;28;20497;-70
2021/11/11 21:31:46;;;;;;;0.10;0.10;;;;;;;;;;5037728;28;20393;-71
2021/11/11 21:34:17;;;;;;;0.10;0.10;;;;;;;;;;5042881;28;20205;-71
2021/11/11 21:36:52;;;;;;;0.10;0.10;;;;;;;;;;5043231;28;20277;-70
2021/11/11 21:39:23;;;;;;;0.10;0.10;;;;;;;;;;5042644;28;20543;-70
2021/11/11 21:41:51;;;;;;;0.10;0.10;;;;;;;;;;5037543;28;20428;-70
2021/11/11 21:44:23;;;;;;;0.10;0.10;;;;;;;;;;5045513;28;20497;-69
2021/11/11 21:46:49;;;;;;;0.10;0.10;;;;;;;;;;5041764;28;20194;-70
2021/11/11 21:49:16;;;;;;;0.10;0.10;;;;;;;;;;5036853;28;20201;-69
2021/11/11 21:51:43;;;;;;;0.10;0.10;;;;;;;;;;5043878;28;20209;-70
2021/11/11 21:54:14;;;;;;;0.10;0.10;;;;;;;;;;5036599;28;20202;-70
2021/11/11 21:56:44;;;;;;;0.10;0.10;;;;;;;;;;5032861;28;20229;-71
2021/11/11 21:59:25;;;;;;;0.10;0.10;;;;;;;;;;5035706;28;20210;-71
2021/11/11 22:04:49;;;;;;;0.10;0.10;;;;;;;;;;5030290;28;20205;-69
2021/11/11 22:07:26;;;;;;;0.10;0.10;;;;;;;;;;5040779;28;20189;-70
2021/11/11 22:21:00;;;;;;;0.10;0.10;;;;;;;;;;5013277;28;20213;-71
2021/11/11 22:23:39;;;;;;;0.10;0.10;;;;;;;;;;5033759;28;20197;-70
2021/11/11 22:26:18;;;;;;;0.10;0.10;;;;;;;;;;5034932;28;20208;-70
2021/11/11 22:28:50;;;;;;;0.10;0.10;;;;;;;;;;5038964;28;20201;-70
2021/11/11 22:34:06;;;;;;;0.10;0.10;;;;;;;;;;5013494;28;20583;-70
2021/11/11 22:36:32;;;;;;;0.10;0.10;;;;;;;;;;5034682;28;20213;-69
2021/11/11 22:38:58;;;;;;;0.10;0.10;;;;;;;;;;5041108;28;20198;-70
2021/11/11 22:41:30;;;;;;;0.10;0.10;;;;;;;;;;5026841;28;20506;-70
2021/11/11 22:43:57;;;;;;;0.20;0.20;;;;;;;;;;5033885;28;20201;-71
2021/11/11 22:46:23;;;;;;;0.10;0.10;;;;;;;;;;5030606;28;20204;-70
2021/11/11 22:48:51;;;;;;;0.10;0.10;;;;;;;;;;5024620;28;20201;-70
2021/11/11 22:51:17;;;;;;;0.10;0.10;;;;;;;;;;5029537;28;20205;-71
2021/11/11 22:53:59;;;;;;;0.10;0.10;;;;;;;;;;5039554;28;20500;-71
2021/11/11 22:56:32;;;;;;;0.10;0.10;;;;;;;;;;5029711;28;20195;-70
2021/11/11 22:59:06;;;;;;;0.10;0.10;;;;;;;;;;5043852;28;20448;-70
2021/11/11 23:04:19;;;;;;;0.13;0.13;;;;;;;;;;5024337;28;20416;-71
2021/11/11 23:06:57;;;;;;;0.10;0.10;;;;;;;;;;5040596;28;20341;-71
2021/11/11 23:09:38;;;;;;;0.10;0.10;;;;;;;;;;5033313;28;20240;-71
2021/11/11 23:15:02;;;;;;;0.10;0.10;;;;;;;;;;5036270;28;20546;-70
2021/11/11 23:20:38;;;;;;;0.10;0.10;;;;;;;;;;5006914;28;20204;-71
2021/11/11 23:23:08;;;;;;;0.10;0.10;;;;;;;;;;5032122;28;20205;-70
2021/11/11 23:25:38;;;;;;;0.10;0.10;;;;;;;;;;5023938;28;20252;-70
2021/11/11 23:33:36;;;;;;;0.10;0.10;;;;;;;;;;5024244;28;20236;-70
2021/11/11 23:36:02;;;;;;;0.20;0.20;;;;;;;;;;5034533;28;20202;-70
2021/11/11 23:38:29;;;;;;;0.10;0.10;;;;;;;;;;5023469;28;20272;-71
2021/11/11 23:40:56;;;;;;;0.13;0.13;;;;;;;;;;5042029;28;20258;-70
2021/11/11 23:43:25;;;;;;;0.10;0.10;;;;;;;;;;5042089;28;20231;-70
2021/11/11 23:46:02;;;;;;;0.10;0.10;;;;;;;;;;5039728;28;20237;-71
2021/11/11 23:48:30;;;;;;;0.10;0.10;;;;;;;;;;5033193;28;20197;-71
2021/11/11 23:51:10;;;;;;;0.10;0.10;;;;;;;;;;5025473;28;20239;-70
